Time;durP1;ratioP1;P1;durP2;ratioP2;P2;SDS_P1;SDS_P2;PMS_P1;PMS_P2;Temp;Humidity;BMP_temperature;BMP_pressure;BME280_temperature;BME280_humidity;BME280_pressure;Samples;Min_cycle;Max_cycle;Signal;HPM_P1;HPM_P2
2022/10/07 00:01:37;;;;;;;10.63;3.37;;;;;;;;;;5140842;27;20444;-69
2022/10/07 00:04:03;;;;;;;7.60;3.37;;;;;;;;;;5140680;27;20467;-70
2022/10/07 00:06:29;;;;;;;10.00;3.03;;;;;;;;;;5140756;27;20400;-71
2022/10/07 00:08:55;;;;;;;10.00;2.87;;;;;;;;;;5140578;27;20898;-69
2022/10/07 00:11:22;;;;;;;10.40;2.97;;;;;;;;;;5140810;27;20467;-70
2022/10/07 00:13:49;;;;;;;12.30;3.40;;;;;;;;;;5140792;27;20392;-68
2022/10/07 00:16:17;;;;;;;5.07;3.10;;;;;;;;;;5141002;27;20410;-69
2022/10/07 00:18:43;;;;;;;5.83;3.20;;;;;;;;;;5140759;27;20428;-68
2022/10/07 00:21:11;;;;;;;9.37;3.03;;;;;;;;;;5140646;27;20495;-69
2022/10/07 00:23:38;;;;;;;11.00;3.47;;;;;;;;;;5137913;27;20405;-69
2022/10/07 00:26:08;;;;;;;7.83;3.20;;;;;;;;;;5118931;27;20423;-70
2022/10/07 00:28:35;;;;;;;7.27;3.07;;;;;;;;;;5137382;27;20764;-71
2022/10/07 00:31:02;;;;;;;4.73;2.43;;;;;;;;;;5137237;27;20851;-70
2022/10/07 00:33:32;;;;;;;10.03;3.67;;;;;;;;;;5118820;27;20419;-70
2022/10/07 00:35:58;;;;;;;5.07;2.70;;;;;;;;;;5137135;27;20750;-69
2022/10/07 00:38:25;;;;;;;6.27;3.03;;;;;;;;;;5118716;27;20424;-69
2022/10/07 00:40:50;;;;;;;8.23;3.37;;;;;;;;;;5137140;27;20495;-69
2022/10/07 00:43:28;;;;;;;3.00;2.50;;;;;;;;;;5137050;27;20448;-71
2022/10/07 00:45:57;;;;;;;3.10;2.50;;;;;;;;;;5137006;27;20432;-69
2022/10/07 00:48:26;;;;;;;8.30;3.20;;;;;;;;;;5136960;27;20424;-68
2022/10/07 00:50:53;;;;;;;6.53;2.87;;;;;;;;;;5136813;27;20463;-70
2022/10/07 00:53:20;;;;;;;11.70;3.00;;;;;;;;;;5136849;27;20413;-70
2022/10/07 00:55:46;;;;;;;4.63;2.90;;;;;;;;;;5137101;27;20483;-69
2022/10/07 00:58:12;;;;;;;17.03;3.40;;;;;;;;;;5136706;27;20512;-71
2022/10/07 01:00:39;;;;;;;6.03;3.00;;;;;;;;;;5136724;27;20427;-69
2022/10/07 01:03:05;;;;;;;5.20;2.87;;;;;;;;;;5136724;27;20886;-70
2022/10/07 01:05:31;;;;;;;7.60;3.20;;;;;;;;;;5118010;27;20467;-69
2022/10/07 01:07:58;;;;;;;11.87;3.60;;;;;;;;;;5136497;27;20942;-71
2022/10/07 01:10:26;;;;;;;14.60;3.30;;;;;;;;;;5136512;27;20466;-70
2022/10/07 01:13:04;;;;;;;6.37;2.90;;;;;;;;;;5136617;27;20905;-71
2022/10/07 01:15:33;;;;;;;3.47;3.00;;;;;;;;;;5136543;27;20889;-71
2022/10/07 01:18:17;;;;;;;8.43;2.63;;;;;;;;;;5136414;27;20475;-71
2022/10/07 01:20:48;;;;;;;8.47;2.80;;;;;;;;;;5117955;27;20403;-72
2022/10/07 01:23:34;;;;;;;6.63;2.87;;;;;;;;;;5136231;27;20418;-71
2022/10/07 01:26:10;;;;;;;8.33;3.40;;;;;;;;;;5077194;27;20482;-72
2022/10/07 01:28:47;;;;;;;3.17;2.90;;;;;;;;;;5117758;27;20789;-71
2022/10/07 01:31:15;;;;;;;12.40;3.83;;;;;;;;;;5136090;27;20922;-70
2022/10/07 01:33:42;;;;;;;7.70;3.10;;;;;;;;;;5136053;27;20399;-71
2022/10/07 01:36:10;;;;;;;12.23;3.67;;;;;;;;;;5116343;27;20438;-71
2022/10/07 01:38:37;;;;;;;5.80;3.30;;;;;;;;;;5135966;27;20415;-70
2022/10/07 01:41:15;;;;;;;7.23;3.00;;;;;;;;;;5135894;27;20399;-71
2022/10/07 01:43:41;;;;;;;10.23;3.50;;;;;;;;;;5135866;27;20889;-70
2022/10/07 01:46:10;;;;;;;10.30;3.10;;;;;;;;;;5135881;27;20992;-71
2022/10/07 01:48:36;;;;;;;7.13;3.30;;;;;;;;;;5135770;27;20404;-70
2022/10/07 01:51:02;;;;;;;5.70;2.83;;;;;;;;;;5135639;27;20471;-71
2022/10/07 01:53:48;;;;;;;5.83;3.20;;;;;;;;;;5135673;27;20407;-73
2022/10/07 01:56:14;;;;;;;9.07;3.80;;;;;;;;;;5135708;27;20769;-71
2022/10/07 01:58:52;;;;;;;8.60;3.50;;;;;;;;;;5135545;27;20392;-71
2022/10/07 02:01:41;;;;;;;9.80;3.37;;;;;;;;;;5135457;27;20410;-71
2022/10/07 02:04:07;;;;;;;3.90;2.33;;;;;;;;;;5135412;27;20454;-72
2022/10/07 02:06:39;;;;;;;10.03;2.63;;;;;;;;;;5135372;27;20404;-71
2022/10/07 02:09:11;;;;;;;6.30;2.90;;;;;;;;;;5135329;27;20407;-71
2022/10/07 02:11:39;;;;;;;11.60;3.67;;;;;;;;;;5135343;27;20441;-70
2022/10/07 02:14:14;;;;;;;13.30;3.10;;;;;;;;;;5135315;27;20483;-71
2022/10/07 02:16:50;;;;;;;5.27;2.90;;;;;;;;;;5135348;27;20427;-71
2022/10/07 02:19:28;;;;;;;14.70;3.83;;;;;;;;;;5116757;27;20437;-71
2022/10/07 02:21:56;;;;;;;6.37;2.40;;;;;;;;;;5135058;27;20935;-71
2022/10/07 02:24:23;;;;;;;4.27;3.00;;;;;;;;;;5135102;27;20416;-71
2022/10/07 02:26:50;;;;;;;14.83;3.40;;;;;;;;;;5135056;27;20471;-72
2022/10/07 02:29:19;;;;;;;11.37;2.80;;;;;;;;;;5116457;27;20478;-70
2022/10/07 02:31:47;;;;;;;7.40;3.03;;;;;;;;;;5135100;27;20399;-71
2022/10/07 02:34:15;;;;;;;10.53;3.17;;;;;;;;;;5116548;27;20422;-71
2022/10/07 02:36:44;;;;;;;9.13;2.67;;;;;;;;;;5116466;28;20891;-71
2022/10/07 02:39:11;;;;;;;10.90;3.80;;;;;;;;;;5116503;27;20411;-71
2022/10/07 02:41:49;;;;;;;6.00;2.50;;;;;;;;;;5134903;27;20415;-70
2022/10/07 02:44:33;;;;;;;8.43;3.50;;;;;;;;;;5116396;27;20423;-71
2022/10/07 02:47:18;;;;;;;9.70;3.40;;;;;;;;;;5134404;27;20890;-71
2022/10/07 02:49:46;;;;;;;7.53;3.13;;;;;;;;;;5134614;27;20469;-71
2022/10/07 02:52:14;;;;;;;13.10;3.07;;;;;;;;;;5134695;27;20450;-72
2022/10/07 02:54:44;;;;;;;9.53;3.30;;;;;;;;;;5134610;27;20395;-71
2022/10/07 02:57:11;;;;;;;8.77;3.40;;;;;;;;;;5134645;27;20522;-71
2022/10/07 02:59:38;;;;;;;13.03;3.50;;;;;;;;;;5134569;27;20431;-71
2022/10/07 03:02:06;;;;;;;9.20;3.40;;;;;;;;;;5134551;27;20411;-70
2022/10/07 03:04:32;;;;;;;12.37;2.70;;;;;;;;;;5115835;27;20467;-70
2022/10/07 03:06:59;;;;;;;5.93;2.60;;;;;;;;;;5116052;27;20835;-72
2022/10/07 03:09:25;;;;;;;16.30;3.20;;;;;;;;;;5134427;27;20957;-71
2022/10/07 03:11:51;;;;;;;6.73;2.70;;;;;;;;;;5134372;28;20404;-71
2022/10/07 03:14:17;;;;;;;6.57;2.60;;;;;;;;;;5134390;28;20453;-70
2022/10/07 03:16:43;;;;;;;10.37;2.67;;;;;;;;;;5134396;28;20411;-70
2022/10/07 03:19:09;;;;;;;6.33;2.73;;;;;;;;;;5134353;28;20388;-71
2022/10/07 03:21:36;;;;;;;4.33;3.20;;;;;;;;;;5134332;28;20893;-71
2022/10/07 03:24:03;;;;;;;7.60;2.70;;;;;;;;;;5134323;28;20401;-71
2022/10/07 03:26:31;;;;;;;5.53;2.73;;;;;;;;;;5134311;28;20406;-71
2022/10/07 03:28:58;;;;;;;5.80;3.20;;;;;;;;;;5134146;28;20474;-71
2022/10/07 03:31:25;;;;;;;5.67;3.40;;;;;;;;;;5115789;28;20883;-72
2022/10/07 03:33:51;;;;;;;7.50;3.70;;;;;;;;;;5134241;28;20415;-71
2022/10/07 03:36:17;;;;;;;9.97;3.03;;;;;;;;;;5134158;28;20878;-71
2022/10/07 03:38:43;;;;;;;6.70;3.90;;;;;;;;;;5134416;28;20815;-71
2022/10/07 03:41:08;;;;;;;7.60;3.17;;;;;;;;;;5134198;28;20408;-71
2022/10/07 03:43:34;;;;;;;6.43;3.07;;;;;;;;;;5134157;28;20762;-71
2022/10/07 03:46:01;;;;;;;6.30;3.03;;;;;;;;;;5115779;28;20419;-70
2022/10/07 03:48:28;;;;;;;6.30;3.17;;;;;;;;;;5115916;28;20794;-70
2022/10/07 03:50:57;;;;;;;5.77;3.33;;;;;;;;;;5133997;28;20474;-72
2022/10/07 03:53:24;;;;;;;3.57;3.27;;;;;;;;;;5133952;28;20411;-71
2022/10/07 03:55:50;;;;;;;12.00;3.57;;;;;;;;;;5134056;28;20410;-70
2022/10/07 03:58:16;;;;;;;7.30;3.03;;;;;;;;;;5134758;27;20498;-71
2022/10/07 04:00:42;;;;;;;6.33;3.07;;;;;;;;;;5137937;27;20435;-71
2022/10/07 04:03:08;;;;;;;7.80;2.97;;;;;;;;;;5137885;27;20753;-71
2022/10/07 04:05:35;;;;;;;6.30;2.63;;;;;;;;;;5137619;27;20502;-71
2022/10/07 04:08:01;;;;;;;6.30;3.37;;;;;;;;;;5137723;27;20408;-71
2022/10/07 04:10:27;;;;;;;11.10;3.10;;;;;;;;;;5137662;27;20557;-70
2022/10/07 04:12:53;;;;;;;10.90;4.03;;;;;;;;;;5137554;27;20435;-70
2022/10/07 04:15:19;;;;;;;15.60;3.90;;;;;;;;;;5137697;27;20403;-69
2022/10/07 04:17:46;;;;;;;9.33;2.87;;;;;;;;;;5137637;27;20429;-69
2022/10/07 04:20:13;;;;;;;7.20;3.10;;;;;;;;;;5137610;27;20890;-71
2022/10/07 04:22:39;;;;;;;7.30;2.87;;;;;;;;;;5137460;27;20411;-70
2022/10/07 04:27:55;;;;;;;9.07;3.10;;;;;;;;;;5137605;27;20764;-70
2022/10/07 04:30:21;;;;;;;8.50;3.20;;;;;;;;;;5137190;27;20591;-71
2022/10/07 04:32:49;;;;;;;6.70;3.53;;;;;;;;;;5137415;27;20445;-71
2022/10/07 04:35:16;;;;;;;3.80;3.10;;;;;;;;;;5118789;27;20427;-71
2022/10/07 04:37:42;;;;;;;10.60;4.23;;;;;;;;;;5137075;27;20415;-71
2022/10/07 04:40:08;;;;;;;10.20;3.60;;;;;;;;;;5137171;27;20498;-71
2022/10/07 04:45:19;;;;;;;6.50;5.07;;;;;;;;;;5137084;27;20398;-71
2022/10/07 04:47:46;;;;;;;15.47;5.47;;;;;;;;;;5137088;27;20408;-71
2022/10/07 04:50:12;;;;;;;11.90;3.40;;;;;;;;;;5136894;27;20462;-71
2022/10/07 04:52:41;;;;;;;13.27;3.57;;;;;;;;;;5136872;27;20892;-71
2022/10/07 04:55:07;;;;;;;6.60;2.70;;;;;;;;;;5136885;27;20871;-71
2022/10/07 04:57:33;;;;;;;7.47;2.83;;;;;;;;;;5136851;27;20453;-72
2022/10/07 05:00:00;;;;;;;10.50;3.07;;;;;;;;;;5136802;27;20404;-70
2022/10/07 05:02:26;;;;;;;9.50;3.50;;;;;;;;;;5136725;27;20487;-71
2022/10/07 05:04:52;;;;;;;9.50;3.53;;;;;;;;;;5136531;27;20471;-71
2022/10/07 05:07:18;;;;;;;11.20;3.07;;;;;;;;;;5136608;27;20424;-71
2022/10/07 05:09:44;;;;;;;7.67;3.53;;;;;;;;;;5136146;27;20547;-71
2022/10/07 05:12:11;;;;;;;3.60;2.70;;;;;;;;;;5136505;27;20929;-70
2022/10/07 05:14:37;;;;;;;3.47;2.73;;;;;;;;;;5136441;27;20449;-70
2022/10/07 05:17:03;;;;;;;20.80;13.10;;;;;;;;;;5136766;27;20752;-71
2022/10/07 05:19:29;;;;;;;14.10;9.60;;;;;;;;;;5136609;27;20394;-68
2022/10/07 05:21:55;;;;;;;21.80;15.63;;;;;;;;;;5136253;27;20914;-70
2022/10/07 05:24:21;;;;;;;5.97;5.50;;;;;;;;;;5136408;27;20431;-72
2022/10/07 05:26:47;;;;;;;15.57;6.10;;;;;;;;;;5136186;27;20476;-68
2022/10/07 05:29:13;;;;;;;8.70;4.00;;;;;;;;;;5136072;27;20404;-68
2022/10/07 05:31:40;;;;;;;26.17;8.30;;;;;;;;;;5136242;27;20408;-69
2022/10/07 05:34:06;;;;;;;65.30;14.03;;;;;;;;;;5117937;27;20811;-68
2022/10/07 05:36:33;;;;;;;37.17;15.40;;;;;;;;;;5136220;27;20412;-67
2022/10/07 05:38:59;;;;;;;113.13;71.60;;;;;;;;;;5135919;27;20502;-69
2022/10/07 05:41:27;;;;;;;18.00;11.23;;;;;;;;;;5135937;27;20450;-68
2022/10/07 05:43:53;;;;;;;9.00;5.83;;;;;;;;;;5135886;27;20424;-70
2022/10/07 05:46:19;;;;;;;16.50;6.10;;;;;;;;;;5135851;27;20411;-71
2022/10/07 05:48:46;;;;;;;9.00;5.90;;;;;;;;;;5135851;27;20404;-69
2022/10/07 05:51:16;;;;;;;9.23;6.20;;;;;;;;;;5117277;27;20478;-71
2022/10/07 05:53:42;;;;;;;10.93;6.60;;;;;;;;;;5135617;27;20456;-70
2022/10/07 05:56:09;;;;;;;19.57;6.20;;;;;;;;;;5135786;27;20772;-70
2022/10/07 05:58:35;;;;;;;22.10;6.67;;;;;;;;;;5135569;27;20395;-70
2022/10/07 06:01:02;;;;;;;11.13;7.90;;;;;;;;;;5135599;27;20483;-69
2022/10/07 06:03:28;;;;;;;13.80;7.50;;;;;;;;;;5135270;27;21024;-69
2022/10/07 06:05:54;;;;;;;11.13;6.27;;;;;;;;;;5135447;27;20525;-68
2022/10/07 06:08:21;;;;;;;6.60;5.67;;;;;;;;;;5135453;27;20415;-70
2022/10/07 06:13:32;;;;;;;11.63;6.30;;;;;;;;;;5135649;27;20411;-69
2022/10/07 06:16:02;;;;;;;34.83;21.73;;;;;;;;;;5135273;27;20392;-69
2022/10/07 06:18:28;;;;;;;13.23;8.80;;;;;;;;;;5135230;27;20398;-71
2022/10/07 06:20:55;;;;;;;19.70;5.30;;;;;;;;;;5134561;27;20399;-68
2022/10/07 06:23:21;;;;;;;8.77;4.53;;;;;;;;;;5116491;27;20418;-69
2022/10/07 06:25:58;;;;;;;12.10;4.47;;;;;;;;;;5134986;27;20403;-68
2022/10/07 06:28:24;;;;;;;5.80;4.77;;;;;;;;;;5135002;27;20418;-69
2022/10/07 06:30:50;;;;;;;8.43;5.03;;;;;;;;;;5134947;27;20870;-69
2022/10/07 06:33:17;;;;;;;6.80;5.20;;;;;;;;;;5135028;27;20396;-69
2022/10/07 06:35:43;;;;;;;10.13;4.93;;;;;;;;;;5135026;27;20416;-69
2022/10/07 06:38:09;;;;;;;14.73;5.20;;;;;;;;;;5134616;27;20909;-68
2022/10/07 06:40:35;;;;;;;8.73;4.87;;;;;;;;;;5134866;27;20430;-68
2022/10/07 06:43:01;;;;;;;16.20;5.47;;;;;;;;;;5134952;27;20851;-70
2022/10/07 06:45:29;;;;;;;6.90;4.70;;;;;;;;;;5134885;27;20400;-68
2022/10/07 06:47:55;;;;;;;7.43;4.77;;;;;;;;;;5134759;27;20407;-69
2022/10/07 06:50:21;;;;;;;14.20;5.50;;;;;;;;;;5116207;27;20479;-68
2022/10/07 06:52:47;;;;;;;7.83;5.27;;;;;;;;;;5134630;27;20414;-68
2022/10/07 06:55:13;;;;;;;8.93;6.00;;;;;;;;;;5134626;27;20408;-68
2022/10/07 06:57:40;;;;;;;109.90;78.20;;;;;;;;;;5134579;27;20403;-68
2022/10/07 07:00:06;;;;;;;6.57;5.90;;;;;;;;;;5134739;27;20481;-67
2022/10/07 07:02:32;;;;;;;12.13;5.70;;;;;;;;;;5134472;27;20532;-67
2022/10/07 07:04:58;;;;;;;10.93;4.53;;;;;;;;;;5115936;28;21001;-68
2022/10/07 07:07:24;;;;;;;10.37;4.83;;;;;;;;;;5134435;27;20472;-67
2022/10/07 07:09:51;;;;;;;11.27;5.40;;;;;;;;;;5134362;27;20542;-67
2022/10/07 07:12:17;;;;;;;9.77;6.03;;;;;;;;;;5134462;28;20415;-68
2022/10/07 07:14:43;;;;;;;5.87;4.83;;;;;;;;;;5134351;28;20392;-69
2022/10/07 07:17:10;;;;;;;8.93;5.57;;;;;;;;;;5134254;28;20391;-68
2022/10/07 07:19:36;;;;;;;11.40;4.07;;;;;;;;;;5134327;28;20941;-68
2022/10/07 07:22:02;;;;;;;11.83;4.93;;;;;;;;;;5134278;28;20978;-67
2022/10/07 07:24:28;;;;;;;15.70;5.37;;;;;;;;;;5134599;28;20396;-67
2022/10/07 07:26:54;;;;;;;11.03;5.20;;;;;;;;;;5134101;28;20396;-69
2022/10/07 07:29:20;;;;;;;14.83;5.20;;;;;;;;;;5134120;28;20465;-68
2022/10/07 07:31:48;;;;;;;17.17;5.80;;;;;;;;;;5134237;27;20448;-69
2022/10/07 07:34:14;;;;;;;8.40;5.67;;;;;;;;;;5138255;27;20427;-69
2022/10/07 07:36:43;;;;;;;20.13;5.30;;;;;;;;;;5138126;27;20411;-69
2022/10/07 07:39:10;;;;;;;15.27;4.87;;;;;;;;;;5138205;27;20448;-69
2022/10/07 07:41:39;;;;;;;9.50;5.40;;;;;;;;;;5138276;27;20463;-69
2022/10/07 07:44:07;;;;;;;12.20;4.70;;;;;;;;;;5138225;27;20396;-69
2022/10/07 07:46:38;;;;;;;16.33;6.23;;;;;;;;;;5138108;27;20403;-69
2022/10/07 07:49:05;;;;;;;10.43;6.10;;;;;;;;;;5137944;27;20404;-69
2022/10/07 07:51:31;;;;;;;11.30;5.80;;;;;;;;;;5138092;27;20414;-68
2022/10/07 07:53:58;;;;;;;10.87;5.67;;;;;;;;;;5138087;27;20416;-68
2022/10/07 07:56:25;;;;;;;7.23;5.20;;;;;;;;;;5137961;27;20407;-68
2022/10/07 07:58:53;;;;;;;7.60;5.70;;;;;;;;;;5137847;27;20400;-69
2022/10/07 08:01:18;;;;;;;14.93;5.27;;;;;;;;;;5137987;27;20499;-68
2022/10/07 08:03:46;;;;;;;8.90;5.10;;;;;;;;;;5137737;27;20492;-69
2022/10/07 08:06:12;;;;;;;5.40;4.90;;;;;;;;;;5137842;27;20879;-69
2022/10/07 08:08:41;;;;;;;19.00;5.60;;;;;;;;;;5137742;27;20416;-68
2022/10/07 08:11:07;;;;;;;8.83;5.10;;;;;;;;;;5137806;27;20466;-69
2022/10/07 08:13:35;;;;;;;51.77;39.23;;;;;;;;;;5137685;27;20405;-69
2022/10/07 08:16:03;;;;;;;22.43;17.37;;;;;;;;;;5137648;27;20413;-68
2022/10/07 08:18:29;;;;;;;6.50;5.77;;;;;;;;;;5119209;27;20493;-69
2022/10/07 08:20:57;;;;;;;13.93;5.20;;;;;;;;;;5137447;27;20896;-68
2022/10/07 08:23:25;;;;;;;17.97;5.03;;;;;;;;;;5137406;27;20410;-69
2022/10/07 08:25:54;;;;;;;8.43;5.33;;;;;;;;;;5137506;27;20403;-69
2022/10/07 08:28:20;;;;;;;7.10;5.97;;;;;;;;;;5119006;27;20425;-70
2022/10/07 08:30:46;;;;;;;9.33;5.07;;;;;;;;;;5137362;27;20986;-69
2022/10/07 08:33:12;;;;;;;6.73;5.03;;;;;;;;;;5137306;27;20394;-69
2022/10/07 08:35:38;;;;;;;9.33;5.50;;;;;;;;;;5137379;27;20402;-69
2022/10/07 08:38:04;;;;;;;13.57;5.77;;;;;;;;;;5137246;27;20403;-70
2022/10/07 08:40:30;;;;;;;7.20;5.10;;;;;;;;;;5137454;27;20402;-69
2022/10/07 08:42:58;;;;;;;7.70;5.00;;;;;;;;;;5137072;27;20403;-69
2022/10/07 08:45:30;;;;;;;11.27;5.60;;;;;;;;;;5136513;27;20438;-69
2022/10/07 08:47:57;;;;;;;10.70;5.23;;;;;;;;;;5136981;27;20427;-69
2022/10/07 08:50:30;;;;;;;5.07;4.60;;;;;;;;;;5136915;27;20512;-69
2022/10/07 08:53:01;;;;;;;14.87;5.00;;;;;;;;;;5136937;27;20899;-71
2022/10/07 08:55:27;;;;;;;14.70;4.37;;;;;;;;;;5136858;27;20455;-69
2022/10/07 08:58:04;;;;;;;4.90;4.13;;;;;;;;;;5136812;27;20404;-69
2022/10/07 09:00:47;;;;;;;8.63;4.83;;;;;;;;;;5136788;27;20396;-69
2022/10/07 09:03:32;;;;;;;6.33;4.20;;;;;;;;;;5136719;27;20393;-70
2022/10/07 09:05:59;;;;;;;7.57;3.83;;;;;;;;;;5095643;28;20476;-69
2022/10/07 09:08:31;;;;;;;3.33;3.03;;;;;;;;;;5095608;28;20418;-69
2022/10/07 09:11:14;;;;;;;3.47;3.27;;;;;;;;;;5094284;28;20479;-70
2022/10/07 09:13:41;;;;;;;8.93;4.07;;;;;;;;;;5095558;28;20390;-69
2022/10/07 09:16:13;;;;;;;5.23;3.73;;;;;;;;;;5095576;28;20429;-70
2022/10/07 09:18:49;;;;;;;4.30;3.27;;;;;;;;;;5095642;28;20395;-72
2022/10/07 09:21:21;;;;;;;5.37;3.50;;;;;;;;;;5095696;28;20448;-71
2022/10/07 09:23:55;;;;;;;4.10;2.80;;;;;;;;;;5095409;28;20408;-71
2022/10/07 09:26:24;;;;;;;5.80;3.47;;;;;;;;;;5095414;28;20401;-71
2022/10/07 09:28:50;;;;;;;9.10;3.03;;;;;;;;;;5094048;28;20413;-70
2022/10/07 09:31:16;;;;;;;7.20;2.97;;;;;;;;;;5095288;28;20459;-69
2022/10/07 09:33:43;;;;;;;8.33;5.90;;;;;;;;;;5095251;28;20882;-70
2022/10/07 09:36:11;;;;;;;9.33;3.23;;;;;;;;;;5093983;28;20427;-70
2022/10/07 09:38:39;;;;;;;10.07;3.40;;;;;;;;;;5095256;28;20422;-70
2022/10/07 09:41:14;;;;;;;6.27;3.10;;;;;;;;;;5095121;28;20423;-70
2022/10/07 09:43:41;;;;;;;8.73;3.57;;;;;;;;;;5095036;28;20408;-70
2022/10/07 09:46:23;;;;;;;18.53;5.80;;;;;;;;;;5094848;28;20413;-70
2022/10/07 09:48:51;;;;;;;11.33;4.07;;;;;;;;;;5094794;28;20416;-71
2022/10/07 09:51:23;;;;;;;8.47;3.60;;;;;;;;;;5094689;28;20465;-71
2022/10/07 09:53:56;;;;;;;5.97;2.97;;;;;;;;;;5094802;28;20427;-71
2022/10/07 09:56:37;;;;;;;6.00;3.47;;;;;;;;;;5093580;28;20408;-71
2022/10/07 09:59:17;;;;;;;3.50;3.17;;;;;;;;;;5094546;28;20406;-71
2022/10/07 10:01:50;;;;;;;9.63;3.33;;;;;;;;;;5093206;28;20937;-71
2022/10/07 10:04:18;;;;;;;8.50;4.00;;;;;;;;;;5110291;27;20455;-70
2022/10/07 10:06:50;;;;;;;5.90;3.00;;;;;;;;;;5135371;27;20395;-72
2022/10/07 10:09:21;;;;;;;9.30;6.30;;;;;;;;;;5135275;27;20435;-71
2022/10/07 10:12:00;;;;;;;5.70;3.10;;;;;;;;;;5135333;27;20918;-71
2022/10/07 10:14:28;;;;;;;3.63;3.30;;;;;;;;;;5135364;27;20428;-72
2022/10/07 10:16:54;;;;;;;7.63;3.93;;;;;;;;;;5134657;27;20418;-70
2022/10/07 10:19:24;;;;;;;9.40;3.80;;;;;;;;;;5134730;27;20399;-69
2022/10/07 10:21:51;;;;;;;5.00;3.67;;;;;;;;;;5134885;27;20408;-71
2022/10/07 10:26:24;;;;;;;5.83;3.30;;;;;;;;;;5135138;27;20406;-70
2022/10/07 10:27:17;;;;;;;3.37;2.90;;;;;;;;;;5134906;27;20419;-71
2022/10/07 10:29:50;;;;;;;8.50;3.20;;;;;;;;;;5135005;27;20451;-71
2022/10/07 10:32:35;;;;;;;6.53;3.30;;;;;;;;;;5134906;27;20898;-71
2022/10/07 10:35:08;;;;;;;4.00;3.07;;;;;;;;;;5116511;27;20430;-71
2022/10/07 10:37:42;;;;;;;17.87;4.70;;;;;;;;;;5134897;27;20498;-71
2022/10/07 10:40:14;;;;;;;3.43;3.17;;;;;;;;;;5134841;27;20407;-71
2022/10/07 10:42:50;;;;;;;3.73;3.17;;;;;;;;;;5116473;27;20450;-70
2022/10/07 10:45:34;;;;;;;4.13;3.77;;;;;;;;;;5134793;27;20803;-71
2022/10/07 10:48:12;;;;;;;5.80;3.50;;;;;;;;;;5134765;27;20473;-71
2022/10/07 10:50:41;;;;;;;11.30;10.53;;;;;;;;;;5116215;27;21000;-71
2022/10/07 10:53:10;;;;;;;11.80;8.07;;;;;;;;;;5134595;27;20410;-71
2022/10/07 10:55:59;;;;;;;5.70;4.23;;;;;;;;;;5134696;27;20925;-71
2022/10/07 10:58:25;;;;;;;4.83;4.50;;;;;;;;;;5134564;27;20434;-71
2022/10/07 11:00:54;;;;;;;6.03;3.93;;;;;;;;;;5116157;27;20450;-71
2022/10/07 11:03:34;;;;;;;6.53;3.50;;;;;;;;;;5134631;27;20178;-71
2022/10/07 11:06:03;;;;;;;11.93;4.57;;;;;;;;;;5134462;27;20507;-71
2022/10/07 11:08:31;;;;;;;4.93;3.60;;;;;;;;;;5133985;27;20767;-70
2022/10/07 11:11:10;;;;;;;5.30;3.63;;;;;;;;;;5134430;27;20462;-70
2022/10/07 11:13:55;;;;;;;5.17;3.23;;;;;;;;;;5134481;28;20400;-70
2022/10/07 11:16:43;;;;;;;6.87;3.77;;;;;;;;;;5134362;28;20460;-71
2022/10/07 11:19:18;;;;;;;5.70;4.27;;;;;;;;;;5134316;28;20909;-70
2022/10/07 11:21:46;;;;;;;7.90;4.00;;;;;;;;;;5134357;28;20899;-70
2022/10/07 11:24:21;;;;;;;6.57;3.90;;;;;;;;;;5134405;28;20876;-71
2022/10/07 11:26:51;;;;;;;10.80;4.03;;;;;;;;;;5115921;28;20453;-70
2022/10/07 11:29:22;;;;;;;9.03;3.87;;;;;;;;;;5115827;28;20426;-71
2022/10/07 11:32:14;;;;;;;5.90;3.90;;;;;;;;;;5134319;28;20415;-71
2022/10/07 11:34:52;;;;;;;6.83;3.77;;;;;;;;;;5129639;28;20432;-71
2022/10/07 11:37:28;;;;;;;3.40;3.10;;;;;;;;;;5133906;28;20434;-71
2022/10/07 11:39:54;;;;;;;6.70;3.70;;;;;;;;;;5133879;28;20760;-71
2022/10/07 11:42:27;;;;;;;12.40;3.80;;;;;;;;;;5133155;28;20771;-71
2022/10/07 11:45:04;;;;;;;4.37;3.30;;;;;;;;;;5133509;28;20416;-70
2022/10/07 11:47:34;;;;;;;8.43;7.17;;;;;;;;;;5134023;28;20399;-71
2022/10/07 11:50:21;;;;;;;9.00;3.80;;;;;;;;;;5133873;28;20446;-70
2022/10/07 11:52:49;;;;;;;3.93;3.07;;;;;;;;;;5116319;28;20423;-69
2022/10/07 11:55:21;;;;;;;6.53;3.80;;;;;;;;;;5133757;28;20814;-70
2022/10/07 11:57:53;;;;;;;6.33;4.20;;;;;;;;;;5133900;28;20439;-70
2022/10/07 12:00:22;;;;;;;11.17;3.30;;;;;;;;;;5133603;28;20913;-70
2022/10/07 12:02:48;;;;;;;6.00;4.10;;;;;;;;;;5133759;28;20392;-69
2022/10/07 12:05:33;;;;;;;5.90;3.57;;;;;;;;;;5115250;28;20471;-70
2022/10/07 12:08:01;;;;;;;11.63;6.50;;;;;;;;;;5133777;28;20420;-70
2022/10/07 12:10:36;;;;;;;4.17;3.53;;;;;;;;;;5133451;28;20470;-70
2022/10/07 12:13:21;;;;;;;8.87;3.90;;;;;;;;;;5133892;28;21023;-69
2022/10/07 12:15:48;;;;;;;4.17;3.50;;;;;;;;;;5133477;27;20415;-70
2022/10/07 12:18:16;;;;;;;9.93;3.93;;;;;;;;;;5133743;27;20884;-70
2022/10/07 12:20:54;;;;;;;11.27;4.07;;;;;;;;;;5136248;27;20398;-71
2022/10/07 12:23:27;;;;;;;9.07;4.03;;;;;;;;;;5137297;27;20405;-70
2022/10/07 12:25:57;;;;;;;10.10;7.40;;;;;;;;;;5137545;27;20400;-70
2022/10/07 12:28:40;;;;;;;5.33;4.03;;;;;;;;;;5118870;27;20413;-70
2022/10/07 12:31:27;;;;;;;14.17;5.23;;;;;;;;;;5137116;27;20474;-73
2022/10/07 12:33:58;;;;;;;11.50;4.80;;;;;;;;;;5120221;27;20479;-72
2022/10/07 12:36:28;;;;;;;10.37;5.37;;;;;;;;;;5136768;27;20437;-72
2022/10/07 12:39:00;;;;;;;9.00;4.70;;;;;;;;;;5118289;27;20500;-72
2022/10/07 12:41:26;;;;;;;10.20;5.43;;;;;;;;;;5137118;27;20428;-72
2022/10/07 12:43:52;;;;;;;9.47;5.17;;;;;;;;;;5137181;27;20853;-75
2022/10/07 12:46:20;;;;;;;9.90;4.80;;;;;;;;;;5136906;27;20640;-74
2022/10/07 12:49:06;;;;;;;5.00;4.30;;;;;;;;;;5136865;27;20407;-71
2022/10/07 12:51:38;;;;;;;6.00;4.50;;;;;;;;;;5118004;27;20536;-73
2022/10/07 12:54:16;;;;;;;9.00;4.50;;;;;;;;;;5136645;27;20452;-72
2022/10/07 12:56:43;;;;;;;5.90;5.30;;;;;;;;;;5118227;27;20428;-73
2022/10/07 13:02:07;;;;;;;11.73;5.40;;;;;;;;;;5136749;27;20397;-72
2022/10/07 13:04:45;;;;;;;11.80;5.90;;;;;;;;;;5136323;27;20853;-70
2022/10/07 13:07:37;;;;;;;7.40;4.60;;;;;;;;;;5136312;27;20411;-70
2022/10/07 13:10:12;;;;;;;7.27;4.47;;;;;;;;;;5097792;27;20484;-69
2022/10/07 13:12:46;;;;;;;6.73;4.60;;;;;;;;;;5136282;27;20769;-68
2022/10/07 13:15:40;;;;;;;19.03;4.70;;;;;;;;;;5135482;27;20482;-70
2022/10/07 13:18:24;;;;;;;10.50;5.27;;;;;;;;;;5097989;27;20981;-71
2022/10/07 13:21:02;;;;;;;8.53;4.87;;;;;;;;;;5117072;27;20433;-70
2022/10/07 13:23:30;;;;;;;10.27;5.07;;;;;;;;;;5117689;27;20423;-77
2022/10/07 13:25:57;;;;;;;14.20;4.47;;;;;;;;;;5117174;27;20426;-73
2022/10/07 13:28:24;;;;;;;10.40;6.77;;;;;;;;;;5135266;27;20759;-77
2022/10/07 13:30:51;;;;;;;7.80;5.73;;;;;;;;;;5135301;27;20477;-71
2022/10/07 13:33:25;;;;;;;12.43;5.00;;;;;;;;;;5135311;27;20390;-76
2022/10/07 13:35:51;;;;;;;5.13;3.83;;;;;;;;;;5117524;27;20413;-73
2022/10/07 13:38:29;;;;;;;9.40;5.23;;;;;;;;;;5117383;27;20426;-76
2022/10/07 13:41:15;;;;;;;13.57;5.00;;;;;;;;;;5135753;27;20484;-72
2022/10/07 13:43:42;;;;;;;10.57;4.50;;;;;;;;;;5135446;27;20868;-76
2022/10/07 13:46:09;;;;;;;8.63;4.87;;;;;;;;;;5135800;27;20399;-72
2022/10/07 13:48:37;;;;;;;8.30;4.77;;;;;;;;;;5135556;27;20391;-71
2022/10/07 13:51:04;;;;;;;8.30;4.77;;;;;;;;;;5135560;27;20469;-80
2022/10/07 13:53:35;;;;;;;12.73;5.10;;;;;;;;;;5135738;27;20442;-78
2022/10/07 13:56:04;;;;;;;8.57;4.70;;;;;;;;;;5117319;27;20457;-72
2022/10/07 13:58:32;;;;;;;8.83;4.60;;;;;;;;;;5135202;27;20410;-78
2022/10/07 14:00:58;;;;;;;10.43;5.13;;;;;;;;;;5117019;27;20843;-73
2022/10/07 14:03:24;;;;;;;12.93;4.40;;;;;;;;;;5135358;27;20406;-83
2022/10/07 14:05:51;;;;;;;9.37;4.60;;;;;;;;;;5135307;27;20414;-75
2022/10/07 14:08:20;;;;;;;9.43;4.73;;;;;;;;;;5135280;27;20410;-76
2022/10/07 14:11:04;;;;;;;16.03;5.10;;;;;;;;;;5135157;27;20549;-76
2022/10/07 14:13:30;;;;;;;10.73;4.47;;;;;;;;;;5135179;27;20898;-74
2022/10/07 14:15:58;;;;;;;17.63;5.13;;;;;;;;;;5135116;27;20406;-74
2022/10/07 14:18:26;;;;;;;8.90;4.40;;;;;;;;;;5134971;27;20397;-73
2022/10/07 14:21:06;;;;;;;6.90;4.50;;;;;;;;;;5135151;27;20487;-74
2022/10/07 14:23:33;;;;;;;8.57;4.57;;;;;;;;;;5134952;27;20424;-73
2022/10/07 14:26:00;;;;;;;10.13;4.13;;;;;;;;;;5134894;27;20888;-74
2022/10/07 14:28:34;;;;;;;10.60;4.67;;;;;;;;;;5134763;27;20915;-74
2022/10/07 14:36:35;;;;;;;14.63;5.20;;;;;;;;;;5134811;27;20455;-73
2022/10/07 14:39:20;;;;;;;7.10;4.20;;;;;;;;;;5134681;27;20408;-76
2022/10/07 14:41:46;;;;;;;12.00;5.70;;;;;;;;;;5134487;27;20415;-73
2022/10/07 14:44:13;;;;;;;14.17;5.50;;;;;;;;;;5116501;27;21180;-77
2022/10/07 14:46:39;;;;;;;10.50;4.27;;;;;;;;;;5136007;27;20896;-79
2022/10/07 14:49:05;;;;;;;8.17;3.93;;;;;;;;;;5135019;27;20413;-71
2022/10/07 14:51:31;;;;;;;6.40;3.90;;;;;;;;;;5134418;27;20472;-72
2022/10/07 14:54:06;;;;;;;7.03;4.30;;;;;;;;;;5134553;27;20879;-72
2022/10/07 14:56:33;;;;;;;13.27;5.00;;;;;;;;;;5116155;27;20947;-69
2022/10/07 14:58:59;;;;;;;12.53;4.80;;;;;;;;;;5134409;27;20401;-72
2022/10/07 15:01:27;;;;;;;5.80;3.83;;;;;;;;;;5134372;27;20441;-77
2022/10/07 15:03:53;;;;;;;15.33;5.30;;;;;;;;;;5134381;27;20868;-70
2022/10/07 15:06:19;;;;;;;9.57;4.30;;;;;;;;;;5134378;27;20418;-76
2022/10/07 15:08:46;;;;;;;7.93;4.63;;;;;;;;;;5134112;27;20776;-71
2022/10/07 15:11:17;;;;;;;12.03;4.70;;;;;;;;;;5115927;28;20545;-80